WebCam (dist. 5.5Km Est) Villalvernia  WebCam (dist. 5.5Km Est) Villalvernia


WebCam (dist. 7Km Ovest) Basaluzzo  WebCam (dist. 7Km Ovest) Basaluzzo


WebCam (dist.13Km Ovest) Castelferro  WebCam (dist.13Km Ovest) Castelferro


WebCam (dist. 15Km Sud) Carrosio  WebCam (dist. 15Km Sud) Carrosio


Avvisi EUMETNET-METEOalarm

Temporali Zona: Piemonte --> Inizio Validità: 20-07-2018 19:00 Termine: 21-07-2018 12:59 Avviso per: Temporali Livello Allerta: Arancio info button
Pioggia Zona: Piemonte --> Inizio Validità: 20-07-2018 19:00 Termine: 21-07-2018 12:59 Avviso per: Pioggia Livello Allerta: Arancio info button

NOTIZIE METEO

Report METAR

   
LIMV - Alessandria
Dati ricevuti: 20-07-2018 09:55
DATI Obsoleti
Parz. nuvoloso  
Parz. nuvoloso  
   Vento: Variabile Calma
Vento: Variabile Calma
Temperatura e Condizioni Meteo: 22°C
P.to Rugiada: 20°C
Umidità: 88%
Pressione: 1016 hPa
Copertura nuvolosa: Partly Cloudy
Visibilità: 8 km
Dettagli cop. nuvolosa: Parz. nuvoloso 800 ft,
Parz. nuvoloso 1500 ft
LIMV 200755Z /////KT 8000 SCT008 SCT015 22/20 Q1016 RMK BKN MON CIME INC CUF VAL FOSCHIA VIS MIN 8000
LIMJ - Genova
Dati ricevuti: 21-07-2018 03:50
Molto nuvoloso  
Molto nuvoloso  
   Vento: SE 22.2 km/h
Vento: SE 22.2 km/h
Temperatura e Condizioni Meteo: 25°C
P.to Rugiada: 21°C
Umidità: 79%
Pressione: 1011 hPa
Copertura nuvolosa: Mostly Cloudy
Visibilità: oltre 10 km
Dettagli cop. nuvolosa: Parz. nuvoloso 1800 ft,
Molto nuvoloso 3500 ft
LIMJ 210150Z 12012KT 9999 SCT018 BKN035 25/21 Q1011
LIML - Milano
Dati ricevuti: 21-07-2018 03:50
Temporale, Parz. nuvoloso  
Temporale, Parz. nuvoloso  
   Vento: SE 7.4 km/h
Vento: SE 7.4 km/h
Temperatura e Condizioni Meteo: 19°C
P.to Rugiada: 18°C
Umidità: 94%
Pressione: 1011 hPa
Copertura nuvolosa: Partly Cloudy
Visibilità: oltre 10 km
Dettagli cop. nuvolosa: Parz. nuvoloso 2000 ft,
Parz. nuvoloso 4000 ft
LIML 210150Z 12004KT 9999 TS SCT020CB SCT040 19/18 Q1011 NOSIG
LIMF - Torino
Dati ricevuti: 21-07-2018 03:50
Molto nuvoloso  
Molto nuvoloso  
   Vento: NO 7.4 km/h
Vento: NO 7.4 km/h
Temperatura e Condizioni Meteo: 19°C
P.to Rugiada: 17°C
Umidità: 88%
Pressione: 1013 hPa
Copertura nuvolosa: Mostly Cloudy
Visibilità: oltre 10 km
Dettagli cop. nuvolosa: Molto nuvoloso 9000 ft
LIMF 210150Z 32004KT 9999 BKN090 19/17 Q1013
LIRA - Roma
Dati ricevuti: 21-07-2018 03:50
Sereno  
Sereno  
   Vento: Variabile 3.7 km/h
Vento: Variabile 3.7 km/h
Temperatura e Condizioni Meteo: 20°C
P.to Rugiada: 16°C
Umidità: 78%
Pressione: 1014 hPa
Visibilità: oltre 10 km
Dettagli cop. nuvolosa: Sereno ft
LIRA 210150Z VRB02KT CAVOK 20/16 Q1014
LICJ - Palermo
Dati ricevuti: 21-07-2018 03:50
Sereno  
Sereno  
   Vento: Est 5.6 km/h
Vento: Est 5.6 km/h
Temperatura e Condizioni Meteo: 24°C
P.to Rugiada: 16°C
Umidità: 61%
Pressione: 1013 hPa
Visibilità: oltre 10 km
Dettagli cop. nuvolosa: Sereno ft
LICJ 210150Z 10003KT CAVOK 24/16 Q1013

Script sviluppato da  Saratoga-weather.org Adattato per il modello da  Weerstation Leuven

Potete trovare le nostre informazioni meteo anche su:

Meteonetwork

Linea Meteo

Weather Underground

AWEKAS

European Weather Network

PWS Weather

WeatherCloud

Citizen Weather Observer Program (CWOP)

Strumentazione in uso:

Meteo-stazione
Oregon Scientific WMR300

Meteo-programma
Weather Display

Meteo-server
Samsung N220

Oregon Scientific WMR300

Weather Display

Samsung N220


Banda Musicale Pozzolese


<